Página principal
METAR-TAF:

METAR-TAF

Aeroportos :

Aeroporto Internacional Lynden Pindling

Nassau, Bahamas

latitude: 25-03N, longitude: 077-28W, altura: 3 m

Observação actual do tempo

O boletim foi feito há 58 minutos, às 06:00 UTC
Vento 10 kt de nordeste
Temperatura 25°C
Humidade 79%
Pressão 1016 hPa
Visibilidade 10 km ou mais
Nuvens dispersasa uma altura de 1800 ft

METAR: MYNN 170600Z 04010KT 9999 SCT018 25/21 A3001

Hora: 01:58 (06:58 UTC)

Previsão

O boletim foi feito há 1 hora e 48 minutos, às 05:10 UTC
Previsão válida de 17 às 06 UTC a 18 às 06 UTC
Vento 9 kt de nordeste
Visibilidade 10 km ou mais
Poucas nuvensa uma altura de 1800 ft
Tornando-se
de 17 às 12 UTC a 17 às 14 UTC
Vento 12 kt de nordeste

TAF: MYNN 170510Z 1706/1806 04009KT 9999 FEW018 BECMG 1712/1714 04012KT

Observações e previsões do tempo de mais de 4000 aeroportos (mensagens METAR e TAF).

As estações disponíveis são os pontos amarelos e vermelhos sobre o mapa.

Mova o rato sobre o mapa para ver o nome da estação.

Depois clique no ponto para visualizar as observações e previsões meteorológicas.

Para alterar o mapa : clique nos botões verdes com uma cruz preta para aumentar o zoom; no botão verde com uma pitada de zoom; ou nas setas verdes para mapas adjacentes.


METAR-TAF: